createdAt,value
2018-12-21T00:01:09.230Z,97778.25
2018-12-21T00:03:36.713Z,97785.98
2018-12-21T00:06:04.223Z,97778.73
2018-12-21T00:08:31.702Z,97776.34
2018-12-21T00:10:59.205Z,97774.05
2018-12-21T00:13:26.702Z,97776.14
2018-12-21T00:15:54.174Z,97772.62
2018-12-21T00:18:21.676Z,97772.86
2018-12-21T00:20:49.136Z,97768.09
2018-12-21T00:23:16.616Z,97758.13
2018-12-21T00:25:44.131Z,97753.30
2018-12-21T00:28:11.589Z,97744.95
2018-12-21T00:30:38.550Z,97745.70
2018-12-21T00:33:11.570Z,97753.90
2018-12-21T00:35:44.680Z,97753.16
2018-12-21T00:38:17.594Z,97762.61
2018-12-21T00:40:50.728Z,97772.47
2018-12-21T00:43:22.026Z,97767.49
2018-12-21T00:45:51.590Z,97764.50
2018-12-21T00:48:19.094Z,97767.87
2018-12-21T00:50:46.598Z,97768.63
2018-12-21T00:53:14.078Z,97761.16
2018-12-21T00:55:41.551Z,97759.33
2018-12-21T00:58:09.080Z,97753.11
2018-12-21T01:00:36.594Z,97748.83
2018-12-21T01:03:04.095Z,97749.42
2018-12-21T01:05:31.578Z,97743.26
2018-12-21T01:07:59.091Z,97736.03
2018-12-21T01:10:26.574Z,97733.16
2018-12-21T01:12:54.099Z,97737.87
2018-12-21T01:15:21.611Z,97730.56
2018-12-21T01:17:49.133Z,97736.93
2018-12-21T01:20:16.636Z,97743.30
2018-12-21T01:22:44.094Z,97744.09
2018-12-21T01:25:11.580Z,97742.55
2018-12-21T01:27:39.090Z,97750.91
2018-12-21T01:30:06.605Z,97747.56
2018-12-21T01:32:34.114Z,97737.75
2018-12-21T01:35:01.696Z,97737.39
2018-12-21T01:37:29.238Z,97735.41
2018-12-21T01:39:56.722Z,97742.23
2018-12-21T01:42:24.239Z,97744.27
2018-12-21T01:44:51.710Z,97740.95
2018-12-21T01:47:19.183Z,97742.94
2018-12-21T01:49:46.721Z,97740.52
2018-12-21T01:52:14.187Z,97738.70
2018-12-21T01:54:41.645Z,97730.64
2018-12-21T01:57:09.136Z,97724.06
2018-12-21T01:59:36.768Z,97723.41
2018-12-21T02:02:04.355Z,97728.68
2018-12-21T02:04:31.818Z,97720.11
2018-12-21T02:06:59.349Z,97720.55
2018-12-21T02:09:26.817Z,97722.95
2018-12-21T02:11:54.296Z,97710.08
2018-12-21T02:14:21.765Z,97713.81
2018-12-21T02:16:49.249Z,97695.50
2018-12-21T02:19:16.734Z,97705.81
2018-12-21T02:21:44.202Z,97716.80
2018-12-21T02:24:11.685Z,97711.47
2018-12-21T02:26:39.170Z,97704.29
2018-12-21T02:29:06.637Z,97704.19
2018-12-21T02:31:34.128Z,97703.38
2018-12-21T02:34:01.594Z,97706.70
2018-12-21T02:36:29.092Z,97709.54
2018-12-21T02:38:56.565Z,97713.13
2018-12-21T02:41:24.034Z,97719.15
2018-12-21T02:43:51.537Z,97715.70
2018-12-21T02:46:19.014Z,97720.76
2018-12-21T02:48:46.515Z,97721.11
2018-12-21T02:51:13.979Z,97720.08
2018-12-21T02:53:41.443Z,97705.38
2018-12-21T02:56:08.907Z,97708.30
2018-12-21T02:58:36.393Z,97699.94
2018-12-21T03:01:03.905Z,97697.81
2018-12-21T03:03:31.412Z,97696.14
2018-12-21T03:05:58.909Z,97702.27
2018-12-21T03:08:26.440Z,97702.12
2018-12-21T03:10:53.896Z,97704.71
2018-12-21T03:13:21.373Z,97698.91
2018-12-21T03:15:48.825Z,97700.44
2018-12-21T03:18:16.317Z,97694.81
2018-12-21T03:20:43.827Z,97685.06
2018-12-21T03:23:11.290Z,97670.52
2018-12-21T03:25:38.764Z,97667.20
2018-12-21T03:28:06.233Z,97660.87
2018-12-21T03:30:33.724Z,97666.89
2018-12-21T03:33:01.304Z,97668.28
2018-12-21T03:35:28.808Z,97660.80
2018-12-21T03:37:56.291Z,97657.35
2018-12-21T03:40:23.759Z,97651.66
2018-12-21T03:42:51.510Z,97655.06
2018-12-21T03:45:19.000Z,97655.56
2018-12-21T03:47:46.528Z,97649.70
2018-12-21T03:50:14.077Z,97646.20
2018-12-21T03:52:41.665Z,97636.92
2018-12-21T03:55:09.211Z,97636.63
2018-12-21T03:57:36.703Z,97642.56
2018-12-21T04:00:05.356Z,97646.87
2018-12-21T04:02:32.865Z,97635.91
2018-12-21T04:05:00.362Z,97633.56
2018-12-21T04:07:27.877Z,97632.91
2018-12-21T04:09:55.460Z,97619.08
2018-12-21T04:12:23.005Z,97617.91
2018-12-21T04:14:50.526Z,97608.05
2018-12-21T04:17:18.234Z,97603.64
2018-12-21T04:19:45.712Z,97587.56
2018-12-21T04:22:13.174Z,97584.35
2018-12-21T04:24:40.658Z,97585.08
2018-12-21T04:27:08.159Z,97570.32
2018-12-21T04:29:35.661Z,97569.28
2018-12-21T04:32:03.139Z,97556.84
2018-12-21T04:34:30.606Z,97557.00
2018-12-21T04:36:58.084Z,97553.09
2018-12-21T04:39:25.557Z,97547.84
2018-12-21T04:41:53.046Z,97548.98
2018-12-21T04:44:20.523Z,97549.56
2018-12-21T04:46:48.038Z,97550.52
2018-12-21T04:49:15.514Z,97558.70
2018-12-21T04:51:43.021Z,97561.52
2018-12-21T04:54:10.523Z,97555.86
2018-12-21T04:56:38.184Z,97553.94
2018-12-21T04:59:05.650Z,97561.13
2018-12-21T05:01:33.239Z,97557.67
2018-12-21T05:04:00.718Z,97555.21
2018-12-21T05:06:28.189Z,97555.88
2018-12-21T05:08:55.689Z,97553.39
2018-12-21T05:11:23.153Z,97557.69
2018-12-21T05:13:50.694Z,97563.64
2018-12-21T05:16:18.158Z,97558.02
2018-12-21T05:18:45.615Z,97553.03
2018-12-21T05:21:13.090Z,97541.52
2018-12-21T05:23:40.565Z,97531.80
2018-12-21T05:26:08.066Z,97532.77
2018-12-21T05:28:35.566Z,97523.77
2018-12-21T05:31:03.084Z,97514.23
2018-12-21T05:33:30.617Z,97506.52
2018-12-21T05:35:58.096Z,97504.77
2018-12-21T05:38:25.564Z,97500.26
2018-12-21T05:40:53.039Z,97508.02
2018-12-21T05:43:20.516Z,97507.03
2018-12-21T05:45:47.981Z,97516.56
2018-12-21T05:48:15.495Z,97517.17
2018-12-21T05:50:42.991Z,97506.38
2018-12-21T05:53:10.524Z,97509.50
2018-12-21T05:55:37.986Z,97508.11
2018-12-21T05:58:05.449Z,97507.26
2018-12-21T06:00:33.119Z,97364.28
2018-12-21T06:03:00.577Z,97489.58
2018-12-21T06:05:28.055Z,97493.95
2018-12-21T06:07:55.566Z,97486.81
2018-12-21T06:10:23.037Z,97480.84
2018-12-21T06:12:50.515Z,97478.75
2018-12-21T06:15:18.071Z,97474.20
2018-12-21T06:17:45.555Z,97468.73
2018-12-21T06:20:13.051Z,97464.25
2018-12-21T06:22:40.550Z,97468.52
2018-12-21T06:25:08.126Z,97464.18
2018-12-21T06:27:35.621Z,97467.16
2018-12-21T06:30:03.708Z,97477.54
2018-12-21T06:32:31.243Z,97473.73
2018-12-21T06:34:58.724Z,97480.09
2018-12-21T06:37:26.189Z,97480.98
2018-12-21T06:39:53.658Z,97478.39
2018-12-21T06:42:21.155Z,97470.98
2018-12-21T06:44:48.626Z,97467.67
2018-12-21T06:47:16.183Z,97460.63
2018-12-21T06:49:43.654Z,97459.66
2018-12-21T06:52:11.146Z,97450.95
2018-12-21T06:54:38.658Z,97454.69
2018-12-21T06:57:06.116Z,97450.06
2018-12-21T06:59:33.587Z,97443.34
2018-12-21T07:02:01.129Z,97447.58
2018-12-21T07:04:28.643Z,97445.48
2018-12-21T07:06:56.290Z,97446.44
2018-12-21T07:09:25.001Z,97440.94
2018-12-21T07:11:52.475Z,97439.66
2018-12-21T07:14:19.982Z,97437.31
2018-12-21T07:16:47.447Z,97428.21
2018-12-21T07:19:14.956Z,97423.98
2018-12-21T07:21:42.431Z,97421.63
2018-12-21T07:24:09.926Z,97425.72
2018-12-21T07:26:37.432Z,97426.33
2018-12-21T07:29:04.931Z,97421.70
2018-12-21T07:31:32.422Z,97412.86
2018-12-21T07:33:59.887Z,97413.19
2018-12-21T07:36:27.364Z,97407.94
2018-12-21T07:38:54.920Z,97406.22
2018-12-21T07:41:22.411Z,97404.14
2018-12-21T07:43:49.959Z,97400.13
2018-12-21T07:46:17.455Z,97400.31
2018-12-21T07:48:44.934Z,97394.87
2018-12-21T07:51:12.426Z,97395.49
2018-12-21T07:53:39.903Z,97393.84
2018-12-21T07:56:07.371Z,97392.88
2018-12-21T07:58:34.845Z,97389.00
2018-12-21T08:01:02.454Z,97395.14
2018-12-21T08:03:29.958Z,97394.25
2018-12-21T08:05:57.427Z,97388.80
2018-12-21T08:08:24.907Z,97392.51
2018-12-21T08:10:52.368Z,97394.52
2018-12-21T08:13:19.835Z,97389.47
2018-12-21T08:15:47.312Z,97382.98
2018-12-21T08:18:14.773Z,97375.92
2018-12-21T08:20:42.262Z,97381.70
2018-12-21T08:23:09.722Z,97343.48
2018-12-21T08:25:37.214Z,97385.69
2018-12-21T08:28:04.678Z,97379.65
2018-12-21T08:30:32.144Z,97381.88
2018-12-21T08:32:59.632Z,97377.42
2018-12-21T08:35:27.094Z,97378.55
2018-12-21T08:37:54.558Z,97376.23
2018-12-21T08:40:22.026Z,97374.55
2018-12-21T08:42:49.494Z,97378.33
2018-12-21T08:45:16.977Z,97379.83
2018-12-21T08:47:44.434Z,97375.77
2018-12-21T08:50:11.901Z,97369.80
2018-12-21T08:52:39.358Z,97365.59
2018-12-21T08:55:06.826Z,97360.89
2018-12-21T08:57:34.305Z,97356.55
2018-12-21T09:00:01.767Z,97351.72
2018-12-21T09:02:29.238Z,97350.88
2018-12-21T09:04:56.694Z,97348.37
2018-12-21T09:07:24.149Z,97344.78
2018-12-21T09:09:51.629Z,97347.81
2018-12-21T09:12:19.093Z,97351.30
2018-12-21T09:14:46.554Z,97350.45
2018-12-21T09:17:14.025Z,97348.44
2018-12-21T09:19:41.496Z,97349.19
2018-12-21T09:22:09.002Z,97346.95
2018-12-21T09:24:36.480Z,97361.31
2018-12-21T09:27:03.988Z,97358.55
2018-12-21T09:29:31.459Z,97361.67
2018-12-21T09:32:04.996Z,97369.69
2018-12-21T09:34:28.432Z,97370.05
2018-12-21T09:36:55.886Z,97272.53
2018-12-21T09:39:23.338Z,97369.80
2018-12-21T09:41:50.795Z,97357.57
2018-12-21T09:44:18.272Z,97340.34
2018-12-21T09:46:46.588Z,97330.08
2018-12-21T09:49:14.050Z,97318.23
2018-12-21T09:51:41.505Z,97311.48
2018-12-21T09:54:10.091Z,97298.25
2018-12-21T09:56:37.899Z,97279.91
2018-12-21T09:59:05.366Z,97271.04
2018-12-21T10:01:32.832Z,97259.44
2018-12-21T10:04:00.303Z,97248.08
2018-12-21T10:06:28.350Z,97246.70
2018-12-21T10:08:55.822Z,97238.22
2018-12-21T10:11:23.639Z,97245.94
2018-12-21T10:13:51.156Z,97231.98
2018-12-21T10:16:18.638Z,97245.70
2018-12-21T10:18:46.131Z,97226.63
2018-12-21T10:21:13.659Z,97262.42
2018-12-21T10:23:41.204Z,97222.60
2018-12-21T10:26:08.699Z,97222.23
2018-12-21T10:28:36.216Z,97223.61
2018-12-21T10:31:03.781Z,97221.11
2018-12-21T10:33:31.273Z,97226.99
2018-12-21T10:35:58.788Z,97225.87
2018-12-21T10:38:26.246Z,97213.98
2018-12-21T10:40:53.731Z,97199.65
2018-12-21T10:43:21.207Z,97197.16
2018-12-21T10:45:48.817Z,97193.78
2018-12-21T10:48:16.312Z,97186.91
2018-12-21T10:50:43.859Z,97192.05
2018-12-21T10:53:11.394Z,97181.78
2018-12-21T10:55:38.873Z,97176.67
2018-12-21T10:58:06.362Z,97167.33
2018-12-21T11:00:33.925Z,97161.08
2018-12-21T11:03:01.383Z,97157.73
2018-12-21T11:05:28.870Z,97145.13
2018-12-21T11:07:56.338Z,97145.73
2018-12-21T11:10:23.866Z,97140.14
2018-12-21T11:12:51.397Z,97116.42
2018-12-21T11:15:18.901Z,97104.47
2018-12-21T11:17:46.387Z,97094.97
2018-12-21T11:20:13.891Z,97088.22
2018-12-21T11:22:41.426Z,97073.36
2018-12-21T11:25:10.537Z,97074.48
2018-12-21T11:27:38.010Z,97061.28
2018-12-21T11:30:07.758Z,97056.17
2018-12-21T11:32:35.257Z,97052.42
2018-12-21T11:35:02.837Z,97042.16
2018-12-21T11:37:30.424Z,97031.21
2018-12-21T11:39:57.906Z,97014.71
2018-12-21T11:42:25.383Z,97010.48
2018-12-21T11:44:52.866Z,96986.02
2018-12-21T11:47:20.362Z,96971.04
2018-12-21T11:49:47.855Z,96954.32
2018-12-21T11:52:15.879Z,96949.93
2018-12-21T11:54:44.484Z,96939.58
2018-12-21T11:57:13.101Z,96942.69
2018-12-21T11:59:44.804Z,96940.30
2018-12-21T12:02:10.087Z,96948.50
2018-12-21T12:04:38.373Z,96940.12
2018-12-21T12:07:05.882Z,96935.76
2018-12-21T12:09:33.401Z,96940.58
2018-12-21T12:12:00.866Z,96941.22
2018-12-21T12:14:28.328Z,96928.20
2018-12-21T12:16:55.806Z,96925.68
2018-12-21T12:19:23.292Z,96913.14
2018-12-21T12:21:50.806Z,96920.61
2018-12-21T12:24:18.261Z,96916.44
2018-12-21T12:26:45.747Z,96914.28
2018-12-21T12:29:13.231Z,96911.50
2018-12-21T12:31:42.924Z,96908.09
2018-12-21T12:34:10.289Z,96921.29
2018-12-21T12:36:37.774Z,96926.48
2018-12-21T12:39:06.183Z,96939.94
2018-12-21T12:41:33.800Z,96919.33
2018-12-21T12:44:01.295Z,96920.03
2018-12-21T12:46:28.784Z,96918.64
2018-12-21T12:48:56.372Z,96895.85
2018-12-21T12:51:23.873Z,96895.12
2018-12-21T12:53:51.504Z,96895.12
2018-12-21T12:56:18.983Z,96890.70
2018-12-21T12:58:46.496Z,96892.06
2018-12-21T13:01:14.170Z,96881.52
2018-12-21T13:03:42.567Z,96878.61
2018-12-21T13:06:10.436Z,96881.44
2018-12-21T13:08:38.996Z,96877.03
2018-12-21T13:11:06.615Z,96872.25
2018-12-21T13:13:34.146Z,96859.86
2018-12-21T13:16:01.639Z,96865.37
2018-12-21T13:18:29.177Z,96885.59
2018-12-21T13:20:57.609Z,96855.91
2018-12-21T13:23:25.126Z,96856.49
2018-12-21T13:25:52.623Z,96852.70
2018-12-21T13:28:20.135Z,96844.27
2018-12-21T13:30:47.622Z,96843.34
2018-12-21T13:33:15.146Z,96840.48
2018-12-21T13:35:42.616Z,96852.06
2018-12-21T13:38:10.095Z,96842.11
2018-12-21T13:40:37.593Z,96850.19
2018-12-21T13:43:05.098Z,96855.09
2018-12-21T13:45:32.588Z,96846.66
2018-12-21T13:48:00.203Z,96852.19
2018-12-21T13:50:27.698Z,96848.21
2018-12-21T13:52:55.186Z,96848.06
2018-12-21T13:55:22.970Z,96840.85
2018-12-21T13:57:50.645Z,96849.56
2018-12-21T14:00:18.136Z,96847.94
2018-12-21T14:02:45.706Z,96852.88
2018-12-21T14:05:13.340Z,96846.63
2018-12-21T14:07:40.863Z,96852.25
2018-12-21T14:10:10.229Z,96851.20
2018-12-21T14:12:37.931Z,96845.71
2018-12-21T14:15:06.505Z,96852.28
2018-12-21T14:17:34.106Z,96853.46
2018-12-21T14:20:01.721Z,96869.08
2018-12-21T14:22:29.244Z,96865.05
2018-12-21T14:24:56.775Z,96871.14
2018-12-21T14:27:24.260Z,96872.97
2018-12-21T14:29:51.787Z,96866.42
2018-12-21T14:32:19.277Z,96861.11
2018-12-21T14:34:46.792Z,96884.55
2018-12-21T14:37:14.317Z,96874.99
2018-12-21T14:39:42.024Z,96873.84
2018-12-21T14:42:09.562Z,96873.94
2018-12-21T14:44:37.055Z,96877.33
2018-12-21T14:47:04.761Z,96875.80
2018-12-21T14:49:32.305Z,96878.41
2018-12-21T14:51:59.798Z,96885.32
2018-12-21T14:54:27.266Z,96881.56
2018-12-21T14:56:54.733Z,96885.83
2018-12-21T14:59:22.549Z,96884.06
2018-12-21T15:01:50.067Z,96884.58
2018-12-21T15:04:17.778Z,96895.08
2018-12-21T15:06:45.283Z,96880.61
2018-12-21T15:09:12.952Z,96894.50
2018-12-21T15:11:40.470Z,96892.50
2018-12-21T15:14:08.249Z,96883.12
2018-12-21T15:16:35.747Z,96890.73
2018-12-21T15:19:03.566Z,96890.73
2018-12-21T15:21:31.083Z,96896.36
2018-12-21T15:23:58.843Z,96886.88
2018-12-21T15:26:26.359Z,96901.75
2018-12-21T15:28:53.829Z,96891.24
2018-12-21T15:31:21.290Z,96888.33
2018-12-21T15:33:48.854Z,96891.34
2018-12-21T15:36:16.342Z,96884.57
2018-12-21T15:38:43.815Z,96888.73
2018-12-21T15:41:11.288Z,96920.28
2018-12-21T15:43:38.750Z,96905.44
2018-12-21T15:46:06.302Z,96900.42
2018-12-21T15:48:33.793Z,96895.09
2018-12-21T15:51:01.271Z,96893.47
2018-12-21T15:53:28.740Z,96893.09
2018-12-21T15:55:56.293Z,96894.92
2018-12-21T15:58:23.779Z,96900.82
2018-12-21T16:00:51.257Z,96895.02
2018-12-21T16:03:18.718Z,96889.43
2018-12-21T16:05:46.218Z,96896.30
2018-12-21T16:08:14.035Z,96896.77
2018-12-21T16:10:41.537Z,96902.36
2018-12-21T16:13:09.262Z,96899.30
2018-12-21T16:15:36.745Z,96901.72
2018-12-21T16:18:04.505Z,96910.09
2018-12-21T16:20:32.009Z,96904.13
2018-12-21T16:22:59.482Z,96911.14
2018-12-21T16:25:26.951Z,96916.26
2018-12-21T16:27:54.439Z,96917.23
2018-12-21T16:30:21.930Z,96923.03
2018-12-21T16:32:49.394Z,96917.71
2018-12-21T16:35:16.879Z,96911.54
2018-12-21T16:37:44.344Z,96907.67
2018-12-21T16:40:11.819Z,96903.54
2018-12-21T16:42:39.311Z,96899.50
2018-12-21T16:45:08.497Z,96902.96
2018-12-21T16:47:35.976Z,96902.77
2018-12-21T16:50:06.123Z,96896.09
2018-12-21T16:52:33.592Z,96901.62
2018-12-21T16:55:01.068Z,96907.01
2018-12-21T16:57:28.598Z,96902.56
2018-12-21T16:59:56.075Z,96906.83
2018-12-21T17:02:23.554Z,96909.44
2018-12-21T17:04:51.032Z,96917.26
2018-12-21T17:07:18.523Z,96925.26
2018-12-21T17:09:46.469Z,96911.94
2018-12-21T17:12:14.115Z,96911.84
2018-12-21T17:14:42.430Z,96915.13
2018-12-21T17:17:09.991Z,96910.68
2018-12-21T17:19:37.477Z,96912.91
2018-12-21T17:22:04.943Z,96908.68
2018-12-21T17:24:32.444Z,96901.25
2018-12-21T17:26:59.904Z,96910.60
2018-12-21T17:29:28.821Z,96905.02
2018-12-21T17:31:56.495Z,96899.49
2018-12-21T17:34:23.991Z,96913.80
2018-12-21T17:36:51.705Z,96905.11
2018-12-21T17:39:19.300Z,96902.90
2018-12-21T17:41:46.796Z,96912.25
2018-12-21T17:44:14.271Z,96913.80
2018-12-21T17:46:41.757Z,96913.31
2018-12-21T17:49:09.223Z,96915.64
2018-12-21T17:51:38.500Z,96923.27
2018-12-21T17:54:06.316Z,96931.09
2018-12-21T17:56:33.797Z,96947.63
2018-12-21T17:59:01.295Z,96947.26
2018-12-21T18:01:28.762Z,96947.05
2018-12-21T18:03:56.242Z,96930.08
2018-12-21T18:06:23.747Z,96944.73
2018-12-21T18:08:51.226Z,96936.92
2018-12-21T18:11:18.690Z,96946.00
2018-12-21T18:13:46.163Z,96946.09
2018-12-21T18:16:13.656Z,96949.95
2018-12-21T18:18:41.176Z,96949.30
2018-12-21T18:21:08.667Z,96963.11
2018-12-21T18:23:36.216Z,96962.70
2018-12-21T18:26:03.700Z,96960.60
2018-12-21T18:28:31.175Z,96959.03
2018-12-21T18:31:01.851Z,96946.48
2018-12-21T18:33:29.339Z,96949.09
2018-12-21T18:35:56.819Z,96948.24
2018-12-21T18:38:24.505Z,96966.56
2018-12-21T18:40:51.988Z,96949.88
2018-12-21T18:43:19.579Z,96952.58
2018-12-21T18:45:47.084Z,96991.13
2018-12-21T18:48:14.560Z,96953.45
2018-12-21T18:50:42.051Z,96960.20
2018-12-21T18:53:09.548Z,96953.65
2018-12-21T18:55:37.139Z,96948.53
2018-12-21T18:58:04.615Z,96949.47
2018-12-21T19:00:32.098Z,96949.00
2018-12-21T19:02:59.581Z,96936.25
2018-12-21T19:05:27.054Z,96954.89
2018-12-21T19:07:54.529Z,96939.54
2018-12-21T19:10:23.004Z,96936.94
2018-12-21T19:12:50.486Z,96923.13
2018-12-21T19:15:17.966Z,96923.11
2018-12-21T19:17:45.434Z,96926.78
2018-12-21T19:20:12.911Z,96937.09
2018-12-21T19:22:40.423Z,96930.36
2018-12-21T19:25:08.138Z,96939.61
2018-12-21T19:27:35.753Z,96935.09
2018-12-21T19:30:03.653Z,96940.86
2018-12-21T19:32:31.147Z,96951.69
2018-12-21T19:34:58.653Z,96941.65
2018-12-21T19:37:26.295Z,96944.53
2018-12-21T19:39:53.969Z,96937.51
2018-12-21T19:42:21.465Z,96940.20
2018-12-21T19:44:48.937Z,96925.83
2018-12-21T19:47:16.501Z,96929.73
2018-12-21T19:49:44.147Z,96937.45
2018-12-21T19:52:11.676Z,96928.56
2018-12-21T19:54:39.177Z,96948.54
2018-12-21T19:57:06.798Z,96937.75
2018-12-21T19:59:34.438Z,96922.70
2018-12-21T20:02:01.913Z,96928.87
2018-12-21T20:04:29.389Z,96935.89
2018-12-21T20:06:56.975Z,96938.91
2018-12-21T20:09:24.585Z,96934.44
2018-12-21T20:11:53.628Z,96822.47
2018-12-21T20:14:21.153Z,96935.91
2018-12-21T20:16:48.661Z,96921.60
2018-12-21T20:19:16.296Z,96930.59
2018-12-21T20:21:43.911Z,96922.19
2018-12-21T20:24:11.434Z,96924.88
2018-12-21T20:26:38.929Z,96928.64
2018-12-21T20:29:06.577Z,96945.63
2018-12-21T20:31:34.399Z,96938.20
2018-12-21T20:34:02.052Z,96938.87
2018-12-21T20:36:29.554Z,96943.23
2018-12-21T20:38:58.007Z,96946.59
2018-12-21T20:41:25.754Z,96954.53
2018-12-21T20:43:53.415Z,96957.89
2018-12-21T20:46:20.991Z,96955.95
2018-12-21T20:48:48.544Z,96967.42
2018-12-21T20:51:16.284Z,96978.04
2018-12-21T20:53:43.973Z,96969.56
2018-12-21T20:56:11.524Z,96979.22
2018-12-21T20:58:39.134Z,96980.84
2018-12-21T21:01:06.622Z,96979.39
2018-12-21T21:03:34.122Z,96980.82
2018-12-21T21:06:01.657Z,96978.62
2018-12-21T21:08:29.193Z,96985.06
2018-12-21T21:10:56.723Z,96993.64
2018-12-21T21:13:24.227Z,96992.28
2018-12-21T21:15:51.766Z,96996.22
2018-12-21T21:18:19.295Z,96989.73
2018-12-21T21:20:46.805Z,97004.25
2018-12-21T21:23:14.317Z,97004.82
2018-12-21T21:25:41.798Z,97015.27
2018-12-21T21:28:09.355Z,97026.85
2018-12-21T21:30:36.830Z,97013.63
2018-12-21T21:33:04.332Z,97022.04
2018-12-21T21:35:31.898Z,97028.14
2018-12-21T21:37:59.398Z,97030.08
2018-12-21T21:40:27.005Z,97034.41
2018-12-21T21:42:57.674Z,97027.86
2018-12-21T21:45:24.127Z,97025.08
2018-12-21T21:47:51.735Z,97025.56
2018-12-21T21:50:19.241Z,97026.13
2018-12-21T21:52:46.746Z,97024.13
2018-12-21T21:55:14.306Z,96172.47
2018-12-21T21:57:41.803Z,97026.84
2018-12-21T22:00:11.355Z,97031.08
2018-12-21T22:02:39.036Z,97027.89
2018-12-21T22:05:06.573Z,97033.62
2018-12-21T22:07:34.097Z,97030.83
2018-12-21T22:10:01.597Z,97029.20
2018-12-21T22:12:29.168Z,97028.42
2018-12-21T22:14:56.646Z,97031.91
2018-12-21T22:17:24.165Z,97027.87
2018-12-21T22:19:51.705Z,97024.02
2018-12-21T22:22:20.277Z,97025.46
2018-12-21T22:24:47.810Z,97020.99
2018-12-21T22:27:15.307Z,97021.19
2018-12-21T22:29:43.878Z,97014.91
2018-12-21T22:32:11.403Z,97017.84
2018-12-21T22:34:39.698Z,97013.48
2018-12-21T22:37:07.247Z,97019.68
2018-12-21T22:39:34.748Z,97017.47
2018-12-21T22:42:02.263Z,97022.78
2018-12-21T22:44:29.770Z,97013.31
2018-12-21T22:46:57.255Z,97008.01
2018-12-21T22:49:24.814Z,97011.29
2018-12-21T22:51:52.315Z,97011.38
2018-12-21T22:54:19.843Z,97001.44
2018-12-21T22:56:47.389Z,97004.14
2018-12-21T22:59:14.923Z,97007.44
2018-12-21T23:01:42.416Z,97001.53
2018-12-21T23:04:09.907Z,96235.97
2018-12-21T23:06:37.390Z,97003.08
2018-12-21T23:09:05.330Z,96992.94
2018-12-21T23:11:32.863Z,96988.89
2018-12-21T23:14:00.390Z,96997.50
2018-12-21T23:16:27.897Z,96998.44
2018-12-21T23:18:55.441Z,96994.39
2018-12-21T23:21:22.917Z,96990.82
2018-12-21T23:23:50.422Z,96981.74
2018-12-21T23:26:17.919Z,96990.13
2018-12-21T23:28:45.446Z,96999.33
2018-12-21T23:31:12.937Z,96996.91
2018-12-21T23:33:40.427Z,97003.39
2018-12-21T23:36:08.037Z,96999.30
2018-12-21T23:38:35.562Z,96995.16
2018-12-21T23:41:03.070Z,96998.14
2018-12-21T23:43:30.599Z,96995.53
2018-12-21T23:45:58.170Z,96997.67
2018-12-21T23:48:25.713Z,96989.16
2018-12-21T23:50:53.242Z,96987.34
2018-12-21T23:53:20.767Z,96988.22
2018-12-21T23:55:48.247Z,96979.61
2018-12-21T23:58:15.727Z,96981.74
